Alpena, South Dakota
Current Conditions -  °F | °C
As of 6:55 AM on Friday 28 Nov 2014 (Local Time) from KHON Reporting Station
Few Clouds Few Clouds  
Wind Chill: 13°   Ceiling: Unl
Heat Index: 20°   Visibility: 10mi
Dew Point: 16°   Wind: 5mph
Humidity: 85%   Direction: 150°SSE
Pressure: 29.8"   Gusts: NA
Location:  44.18°N, 98.37°W
Report Text: KHON 281255Z AUTO 15004KT 10SM FEW120 M07/M09 A2980 RMK AO2 SLP114 T10671089
Loading
Personal Weather Stations






























Interactive Weather Map New forecast layout! Learn more

10-Day Weather Forecast

Advertisements
Track Severe Weather on mobile